Time;durP1;ratioP1;P1;durP2;ratioP2;P2;SDS_P1;SDS_P2;PMS_P1;PMS_P2;Temp;Humidity;BMP_temperature;BMP_pressure;BME280_temperature;BME280_humidity;BME280_pressure;Samples;Min_cycle;Max_cycle;Signal;HPM_P1;HPM_P2
2023/02/08 00:01:26;;;;;;;1.20;0.95;;;;;;;-4.89;77.15;102376.16;1841573;77;21159;-44
2023/02/08 00:03:55;;;;;;;0.65;0.65;;;;;;;-4.88;77.18;102379.22;1841617;78;21061;-47
2023/02/08 00:06:23;;;;;;;3.47;1.82;;;;;;;-4.87;77.25;102375.83;1841721;78;21105;-47
2023/02/08 00:08:52;;;;;;;2.02;1.00;;;;;;;-4.87;77.34;102381.88;1841596;77;21538;-47
2023/02/08 00:11:21;;;;;;;4.22;2.08;;;;;;;-4.86;77.43;102368.61;1841636;78;21045;-47
2023/02/08 00:13:49;;;;;;;7.65;3.05;;;;;;;-4.83;77.43;102368.78;1841693;78;21096;-44
2023/02/08 00:16:18;;;;;;;3.17;1.42;;;;;;;-4.81;77.48;102372.30;1841635;78;21124;-44
2023/02/08 00:18:46;;;;;;;2.20;1.37;;;;;;;-4.78;77.51;102372.43;1841677;77;21135;-46
2023/02/08 00:21:17;;;;;;;5.33;1.62;;;;;;;-4.76;77.52;102374.67;1841689;78;21115;-44
2023/02/08 00:23:46;;;;;;;4.00;1.75;;;;;;;-4.76;77.54;102370.81;1841718;78;21111;-42
2023/02/08 00:26:15;;;;;;;2.85;1.42;;;;;;;-4.74;77.57;102369.23;1841690;78;21066;-46
2023/02/08 00:28:44;;;;;;;3.77;1.82;;;;;;;-4.71;77.57;102371.94;1841611;78;21041;-44
2023/02/08 00:31:13;;;;;;;4.80;1.70;;;;;;;-4.67;77.52;102366.16;1841479;78;21448;-45
2023/02/08 00:33:43;;;;;;;2.05;1.85;;;;;;;-4.68;77.57;102365.67;1841598;78;21156;-45
2023/02/08 00:36:12;;;;;;;5.92;2.55;;;;;;;-4.69;77.58;102363.89;1841568;78;21046;-46
2023/02/08 00:38:42;;;;;;;1.50;0.95;;;;;;;-4.66;77.55;102360.20;1841764;78;21132;-45
2023/02/08 00:41:11;;;;;;;10.23;3.55;;;;;;;-4.64;77.50;102368.41;1841750;78;21073;-43
2023/02/08 00:43:41;;;;;;;9.30;3.00;;;;;;;-4.69;77.51;102365.17;1841599;78;21057;-46
2023/02/08 00:46:10;;;;;;;8.83;3.85;;;;;;;-4.70;77.50;102367.70;1841765;78;21456;-44
2023/02/08 00:48:38;;;;;;;7.12;2.90;;;;;;;-4.72;77.46;102367.62;1841599;78;21034;-47
2023/02/08 00:51:12;;;;;;;5.12;2.17;;;;;;;-4.76;77.42;102367.38;1841778;78;21050;-43
2023/02/08 00:53:43;;;;;;;6.08;2.45;;;;;;;-4.77;77.35;102373.34;1841728;78;21021;-44
2023/02/08 00:56:13;;;;;;;2.08;1.30;;;;;;;-4.82;77.30;102370.52;1841446;78;21050;-44
2023/02/08 00:58:43;;;;;;;7.22;4.75;;;;;;;-4.85;77.29;102375.50;1841565;77;21151;-44
2023/02/08 01:01:12;;;;;;;5.42;2.85;;;;;;;-4.87;77.26;102366.83;1848661;76;21080;-46
2023/02/08 01:03:42;;;;;;;13.48;3.70;;;;;;;-4.87;77.22;102368.12;1859914;77;21134;-43
2023/02/08 01:06:17;;;;;;;5.80;3.75;;;;;;;-4.90;77.26;102374.41;1860161;76;21071;-47
2023/02/08 01:08:46;;;;;;;8.45;2.50;;;;;;;-4.91;77.27;102380.34;1860089;77;21001;-45
2023/02/08 01:11:24;;;;;;;2.65;1.55;;;;;;;-4.91;77.27;102381.63;1860096;76;21475;-44
2023/02/08 01:13:56;;;;;;;4.87;2.67;;;;;;;-4.91;77.22;102382.91;1860097;77;21024;-46
2023/02/08 01:16:27;;;;;;;4.00;3.12;;;;;;;-4.93;77.22;102378.97;1868193;76;21043;-47
2023/02/08 01:18:58;;;;;;;10.95;3.52;;;;;;;-4.91;77.16;102393.19;1860720;76;21024;-46
2023/02/08 01:21:30;;;;;;;4.85;2.37;;;;;;;-4.93;76.99;102392.23;1863543;76;21111;-45
2023/02/08 01:23:59;;;;;;;10.65;3.20;;;;;;;-4.96;76.96;102394.25;1887917;75;21623;-44
2023/02/08 01:26:31;;;;;;;7.85;2.60;;;;;;;-4.97;76.96;102401.47;1891044;75;21168;-44
2023/02/08 01:29:00;;;;;;;9.05;4.10;;;;;;;-4.97;76.93;102408.30;1880818;75;21548;-45
2023/02/08 01:31:32;;;;;;;34.03;3.27;;;;;;;-5.00;76.92;102411.58;1868186;76;21184;-44
2023/02/08 01:34:01;;;;;;;11.00;2.80;;;;;;;-5.00;76.81;102415.84;1862730;76;21048;-43
2023/02/08 01:36:31;;;;;;;9.33;3.67;;;;;;;-5.04;76.72;102422.09;1894340;76;21136;-44
2023/02/08 01:39:02;;;;;;;4.22;2.70;;;;;;;-5.06;76.67;102419.84;1892020;76;21113;-42
2023/02/08 01:41:33;;;;;;;3.65;2.22;;;;;;;-5.06;76.54;102427.55;1891775;76;21434;-48
2023/02/08 01:44:10;;;;;;;10.85;5.10;;;;;;;-5.07;76.49;102433.52;1873116;76;21115;-47
2023/02/08 01:46:45;;;;;;;7.22;2.90;;;;;;;-5.07;76.46;102424.52;1871022;76;21053;-44
2023/02/08 01:49:22;;;;;;;7.65;3.02;;;;;;;-5.06;76.41;102437.83;1877612;75;21485;-42
2023/02/08 01:51:57;;;;;;;8.08;4.12;;;;;;;-5.07;76.30;102437.37;1876656;76;21114;-46
2023/02/08 01:54:30;;;;;;;10.38;4.78;;;;;;;-5.08;76.18;102439.44;1871253;76;21060;-47
2023/02/08 01:56:59;;;;;;;12.95;5.40;;;;;;;-5.09;76.09;102436.79;1860113;76;21072;-46
2023/02/08 01:59:30;;;;;;;3.35;2.33;;;;;;;-5.10;76.08;102448.76;1860018;76;21037;-47
2023/02/08 02:02:00;;;;;;;10.95;3.70;;;;;;;-5.09;76.04;102444.11;1855808;76;21136;-48
2023/02/08 02:04:30;;;;;;;6.17;3.35;;;;;;;-5.09;76.01;102445.40;1850486;77;21570;-46
2023/02/08 02:07:01;;;;;;;4.33;2.72;;;;;;;-5.04;75.99;102450.34;1850594;77;21476;-49
2023/02/08 02:09:42;;;;;;;9.68;3.77;;;;;;;-5.04;75.87;102452.92;1850451;77;21096;-47
2023/02/08 02:12:12;;;;;;;6.28;3.30;;;;;;;-5.02;75.86;102449.56;1850539;77;21179;-47
2023/02/08 02:14:42;;;;;;;9.65;4.85;;;;;;;-5.01;75.77;102456.48;1855754;75;21108;-49
2023/02/08 02:17:13;;;;;;;13.95;4.03;;;;;;;-5.04;75.72;102456.77;1856743;77;21539;-46
2023/02/08 02:20:20;;;;;;;8.53;4.28;;;;;;;-5.04;75.70;102459.34;1856702;77;21132;-48
2023/02/08 02:23:08;;;;;;;3.05;1.62;;;;;;;-5.01;75.70;102455.20;1861341;76;21035;-44
2023/02/08 02:25:51;;;;;;;8.15;4.08;;;;;;;-4.99;75.61;102462.16;1888676;76;21031;-43
2023/02/08 02:28:34;;;;;;;5.33;2.20;;;;;;;-4.99;75.44;102463.86;1887443;76;21112;-47
2023/02/08 02:31:35;;;;;;;24.90;5.78;;;;;;;-4.99;75.31;102465.14;1881281;76;21129;-51
2023/02/08 02:34:07;;;;;;;11.30;4.50;;;;;;;-4.96;75.33;102463.63;1857858;76;21602;-49
2023/02/08 02:36:41;;;;;;;15.58;5.72;;;;;;;-4.97;75.12;102464.41;1857063;76;21548;-47
2023/02/08 02:39:34;;;;;;;6.58;4.08;;;;;;;-4.98;74.85;102468.17;1887754;76;21124;-47
2023/02/08 02:45:34;;;;;;;12.98;5.42;;;;;;;-4.98;74.42;102466.89;1861377;76;21593;-47
2023/02/08 02:48:09;;;;;;;5.13;3.20;;;;;;;-5.01;73.98;102468.04;1859927;76;21074;-50
2023/02/08 02:50:47;;;;;;;11.90;5.20;;;;;;;-5.05;73.96;102473.01;1878590;76;21051;-49
2023/02/08 02:53:21;;;;;;;12.37;5.15;;;;;;;-5.05;73.76;102472.13;1870673;76;21168;-46
2023/02/08 02:55:52;;;;;;;9.78;4.08;;;;;;;-5.09;73.38;102477.51;1868516;76;21094;-48
2023/02/08 02:58:23;;;;;;;8.58;4.15;;;;;;;-5.11;73.10;102479.49;1888362;76;21151;-52
2023/02/08 03:00:57;;;;;;;6.62;4.50;;;;;;;-5.14;73.04;102475.09;1846217;76;21060;-51
2023/02/08 03:03:30;;;;;;;8.25;3.12;;;;;;;-5.15;72.83;102483.58;1833382;78;21103;-48
2023/02/08 03:06:08;;;;;;;10.38;3.05;;;;;;;-5.16;72.82;102488.66;1832563;78;21596;-54
2023/02/08 03:09:04;;;;;;;4.67;2.75;;;;;;;-5.16;72.73;102489.54;1832543;78;21474;-53
2023/02/08 03:11:35;;;;;;;9.65;5.03;;;;;;;-5.16;72.71;102484.81;1839623;77;21126;-47
2023/02/08 03:14:29;;;;;;;11.43;4.62;;;;;;;-5.17;72.74;102483.03;1872709;77;21052;-50
2023/02/08 03:17:13;;;;;;;10.38;4.87;;;;;;;-5.19;72.58;102485.52;1872825;77;21020;-50
2023/02/08 03:20:06;;;;;;;4.60;3.10;;;;;;;-5.21;72.55;102490.97;1872883;77;21102;-48
2023/02/08 03:22:46;;;;;;;7.33;3.33;;;;;;;-5.21;72.43;102493.54;1872772;77;21036;-50
2023/02/08 03:25:26;;;;;;;3.77;1.62;;;;;;;-5.22;72.16;102491.76;1872420;76;21138;-47
2023/02/08 03:28:09;;;;;;;4.35;3.12;;;;;;;-5.25;72.00;102494.19;1858533;77;21047;-46
2023/02/08 03:30:50;;;;;;;6.50;3.10;;;;;;;-5.25;71.92;102504.45;1762051;76;21059;-51
2023/02/08 03:33:23;;;;;;;4.10;2.47;;;;;;;-5.28;71.81;102506.84;1872650;76;21044;-47
2023/02/08 03:36:09;;;;;;;17.80;9.93;;;;;;;-5.28;71.72;102501.71;1872634;76;21044;-47
2023/02/08 03:38:43;;;;;;;16.65;4.72;;;;;;;-5.28;71.82;102504.28;1778835;80;21193;-45
2023/02/08 03:41:15;;;;;;;7.70;4.08;;;;;;;-5.27;71.83;102504.78;1821802;77;21125;-45
2023/02/08 03:43:46;;;;;;;9.75;4.15;;;;;;;-5.28;71.97;102506.84;1841385;76;21050;-45
2023/02/08 03:46:30;;;;;;;3.83;2.98;;;;;;;-5.27;71.98;102518.91;1839340;77;21232;-47
2023/02/08 03:49:04;;;;;;;9.63;4.33;;;;;;;-5.30;72.00;102525.14;1860002;76;21178;-46
2023/02/08 03:51:35;;;;;;;11.43;4.22;;;;;;;-5.34;72.11;102523.22;1841841;77;21052;-48
2023/02/08 03:54:07;;;;;;;12.43;5.62;;;;;;;-5.39;72.28;102527.21;1850769;77;21182;-47
2023/02/08 03:56:54;;;;;;;6.03;3.95;;;;;;;-5.41;72.38;102528.41;1858610;77;21581;-44
2023/02/08 03:59:31;;;;;;;59.45;6.37;;;;;;;-5.42;72.48;102529.22;1796955;80;21138;-44
2023/02/08 04:02:05;;;;;;;12.78;5.55;;;;;;;-5.43;72.58;102533.45;1833659;76;21661;-46
2023/02/08 04:04:36;;;;;;;8.38;3.30;;;;;;;-5.46;72.66;102534.59;1882425;76;21141;-45
2023/02/08 04:07:05;;;;;;;13.25;4.30;;;;;;;-5.47;72.78;102532.80;1882208;76;21282;-48
2023/02/08 04:09:34;;;;;;;7.62;4.15;;;;;;;-5.48;72.86;102531.05;1875150;76;21141;-53
2023/02/08 04:12:03;;;;;;;5.53;3.08;;;;;;;-5.48;72.99;102533.62;1881519;76;21224;-52
2023/02/08 04:14:32;;;;;;;8.50;4.92;;;;;;;-5.46;73.06;102546.14;1882155;76;21127;-53
2023/02/08 04:17:00;;;;;;;8.10;3.35;;;;;;;-5.47;73.17;102543.08;1891433;76;21051;-51
2023/02/08 04:19:29;;;;;;;6.45;4.33;;;;;;;-5.45;73.20;102545.73;1879718;76;21255;-54
2023/02/08 04:21:57;;;;;;;6.08;3.83;;;;;;;-5.46;73.25;102547.80;1871219;76;21204;-53
2023/02/08 04:24:26;;;;;;;3.12;2.30;;;;;;;-5.52;73.28;102554.77;1868451;76;21036;-54
2023/02/08 04:26:55;;;;;;;10.93;5.00;;;;;;;-5.61;73.27;102556.81;1865095;76;21800;-54
2023/02/08 04:29:23;;;;;;;3.60;2.85;;;;;;;-5.65;73.38;102560.02;1882231;76;21055;-51
2023/02/08 04:31:52;;;;;;;10.10;4.45;;;;;;;-5.68;73.41;102553.41;1865949;76;21046;-53
2023/02/08 04:34:21;;;;;;;9.85;4.78;;;;;;;-5.71;73.42;102557.11;1874741;76;21168;-53
2023/02/08 04:36:50;;;;;;;6.83;3.20;;;;;;;-5.75;73.49;102564.16;1882163;76;21133;-51
2023/02/08 04:39:18;;;;;;;3.47;2.17;;;;;;;-5.80;73.58;102557.47;1876127;76;21027;-53
2023/02/08 04:41:47;;;;;;;6.58;3.70;;;;;;;-5.84;73.67;102556.41;1865327;76;21172;-54
2023/02/08 04:44:15;;;;;;;10.78;6.17;;;;;;;-5.83;73.74;102569.73;1878701;76;22155;-53
2023/02/08 04:46:44;;;;;;;5.53;3.22;;;;;;;-5.84;73.83;102561.53;1866196;76;21050;-53
2023/02/08 04:49:13;;;;;;;8.00;3.45;;;;;;;-5.82;73.89;102564.20;1866727;76;21172;-55
2023/02/08 04:51:41;;;;;;;6.55;3.62;;;;;;;-5.84;73.96;102564.10;1875387;76;21213;-53
2023/02/08 04:54:10;;;;;;;5.00;3.83;;;;;;;-5.81;74.02;102572.36;1870111;76;21046;-49
2023/02/08 04:56:40;;;;;;;5.85;2.83;;;;;;;-5.77;74.03;102568.28;1883016;76;21209;-48
2023/02/08 04:59:09;;;;;;;5.00;2.90;;;;;;;-5.78;74.05;102567.82;1882508;76;21130;-49
2023/02/08 05:01:39;;;;;;;19.12;6.40;;;;;;;-5.82;74.10;102572.77;1881743;76;21517;-49
2023/02/08 05:04:08;;;;;;;10.60;2.70;;;;;;;-5.79;74.16;102571.17;1869061;76;21036;-53
2023/02/08 05:06:37;;;;;;;14.20;5.87;;;;;;;-5.79;74.21;102562.19;1851585;77;21212;-51
2023/02/08 05:09:08;;;;;;;12.43;6.10;;;;;;;-5.78;74.20;102566.13;1842862;77;21559;-49
2023/02/08 05:11:37;;;;;;;8.20;1.98;;;;;;;-5.84;74.06;102573.08;1835951;77;21027;-49
2023/02/08 05:14:07;;;;;;;9.93;3.83;;;;;;;-5.90;73.95;102583.00;1872254;77;21052;-46
2023/02/08 05:16:35;;;;;;;9.18;5.08;;;;;;;-5.95;73.92;102572.87;1869675;77;21040;-45
2023/02/08 05:19:04;;;;;;;11.20;3.27;;;;;;;-5.94;74.01;102574.62;1872220;77;21067;-45
2023/02/08 05:21:33;;;;;;;12.82;4.20;;;;;;;-5.95;73.98;102574.59;1870757;77;21016;-43
2023/02/08 05:24:01;;;;;;;7.90;3.45;;;;;;;-5.98;73.90;102582.09;1835187;77;21119;-43
2023/02/08 05:26:30;;;;;;;12.70;5.62;;;;;;;-5.97;73.77;102591.17;1835428;77;21023;-42
2023/02/08 05:28:59;;;;;;;10.85;5.42;;;;;;;-6.03;73.76;102594.27;1832735;77;21067;-46
2023/02/08 05:31:28;;;;;;;13.35;5.55;;;;;;;-5.99;73.69;102597.89;1832555;77;21616;-44
2023/02/08 05:33:58;;;;;;;14.10;5.28;;;;;;;-5.98;73.60;102596.20;1832736;77;21059;-43
2023/02/08 05:36:26;;;;;;;7.25;3.98;;;;;;;-5.98;73.68;102602.20;1834810;77;21130;-49
2023/02/08 05:38:56;;;;;;;11.18;5.15;;;;;;;-5.91;73.58;102609.44;1832696;77;21112;-46
2023/02/08 05:41:25;;;;;;;5.72;3.62;;;;;;;-5.86;73.43;102614.44;1832125;77;21047;-44
2023/02/08 05:43:56;;;;;;;11.60;4.28;;;;;;;-5.83;73.45;102614.63;1847188;77;21117;-48
2023/02/08 05:46:25;;;;;;;13.65;6.87;;;;;;;-5.75;73.36;102625.74;1860170;77;21020;-46
2023/02/08 05:48:53;;;;;;;10.85;4.85;;;;;;;-5.65;73.14;102626.33;1832769;77;21172;-47
2023/02/08 05:51:22;;;;;;;6.20;2.95;;;;;;;-5.63;72.91;102616.16;1832520;78;21185;-43
2023/02/08 05:53:52;;;;;;;8.95;3.55;;;;;;;-5.59;72.78;102630.93;1840746;77;21055;-45
2023/02/08 05:56:21;;;;;;;6.67;3.95;;;;;;;-5.51;72.66;102631.39;1835452;77;21087;-46
2023/02/08 05:58:49;;;;;;;8.78;3.12;;;;;;;-5.46;72.20;102643.70;1835304;77;21059;-45
2023/02/08 06:01:18;;;;;;;10.45;4.42;;;;;;;-5.40;71.98;102644.44;1849610;77;21024;-49
2023/02/08 06:03:46;;;;;;;13.30;3.98;;;;;;;-5.36;72.10;102635.23;1873821;76;21113;-43
2023/02/08 06:06:18;;;;;;;9.33;3.95;;;;;;;-5.33;71.85;102646.94;1891282;76;21047;-47
2023/02/08 06:08:47;;;;;;;14.60;6.40;;;;;;;-5.29;71.82;102648.50;1878685;76;21055;-42
2023/02/08 06:11:18;;;;;;;6.92;4.22;;;;;;;-5.22;71.67;102644.56;1882936;76;21043;-44
2023/02/08 06:13:46;;;;;;;7.28;4.22;;;;;;;-5.19;71.54;102645.16;1866542;76;21045;-47
2023/02/08 06:16:15;;;;;;;9.38;4.25;;;;;;;-5.11;71.59;102643.52;1860848;76;21485;-45
2023/02/08 06:18:44;;;;;;;8.53;4.17;;;;;;;-5.08;71.12;102643.66;1889109;76;21505;-46
2023/02/08 06:21:15;;;;;;;10.20;4.12;;;;;;;-5.08;70.80;102652.65;1891208;76;21071;-43
2023/02/08 06:23:47;;;;;;;6.97;3.85;;;;;;;-5.11;70.74;102644.80;1866872;76;21137;-46
2023/02/08 06:26:17;;;;;;;1.70;1.55;;;;;;;-5.09;70.52;102648.33;1885454;76;21067;-43
2023/02/08 06:28:46;;;;;;;11.53;4.78;;;;;;;-5.10;70.43;102646.55;1880279;76;21537;-43
2023/02/08 06:31:15;;;;;;;4.20;3.35;;;;;;;-5.09;70.15;102652.56;1865103;76;21054;-45
2023/02/08 06:33:43;;;;;;;9.83;6.05;;;;;;;-5.09;70.25;102658.61;1891190;76;21472;-45
2023/02/08 06:36:12;;;;;;;8.10;4.50;;;;;;;-5.01;70.23;102672.28;1891116;76;21122;-46
2023/02/08 06:38:41;;;;;;;11.30;5.12;;;;;;;-5.00;69.96;102670.17;1891163;76;21047;-45
2023/02/08 06:41:09;;;;;;;12.85;5.87;;;;;;;-4.99;69.89;102672.84;1888611;76;21043;-44
2023/02/08 06:43:39;;;;;;;5.22;2.85;;;;;;;-5.00;69.61;102670.17;1890955;76;21043;-42
2023/02/08 06:46:08;;;;;;;4.10;2.90;;;;;;;-4.99;69.60;102677.09;1891285;76;21105;-43
2023/02/08 06:48:37;;;;;;;8.85;5.17;;;;;;;-4.99;69.54;102683.11;1871308;76;21117;-45
2023/02/08 06:51:06;;;;;;;8.90;4.60;;;;;;;-4.95;69.27;102685.45;1861823;76;21116;-43
2023/02/08 06:53:35;;;;;;;4.75;2.90;;;;;;;-4.85;69.34;102691.20;1876138;76;21465;-47
2023/02/08 06:56:04;;;;;;;9.75;4.80;;;;;;;-4.64;69.21;102696.16;1887260;76;21134;-43
2023/02/08 06:58:32;;;;;;;12.93;4.95;;;;;;;-4.56;68.73;102689.73;1867555;76;21152;-43
2023/02/08 07:01:01;;;;;;;9.98;5.80;;;;;;;-4.53;68.33;102693.35;1881483;76;21556;-46
2023/02/08 07:03:29;;;;;;;17.42;5.65;;;;;;;-4.50;68.11;102688.76;1875529;76;21055;-43
2023/02/08 07:05:58;;;;;;;9.40;4.87;;;;;;;-4.50;68.04;102693.91;1891181;76;21083;-46
2023/02/08 07:08:27;;;;;;;8.23;3.98;;;;;;;-4.44;67.78;102700.69;1887627;76;21047;-48
2023/02/08 07:10:55;;;;;;;15.53;5.10;;;;;;;-4.33;67.83;102711.14;1870246;76;21108;-46
2023/02/08 07:13:24;;;;;;;10.18;5.00;;;;;;;-4.33;67.34;102706.00;1891102;75;21103;-47
2023/02/08 07:15:52;;;;;;;9.05;3.62;;;;;;;-4.32;67.32;102706.88;1891205;76;21086;-48
2023/02/08 07:18:21;;;;;;;6.95;3.35;;;;;;;-4.34;67.20;102697.78;1891220;76;21055;-47
2023/02/08 07:20:50;;;;;;;5.78;3.92;;;;;;;-4.38;67.14;102705.27;1889482;76;21105;-48
2023/02/08 07:23:18;;;;;;;8.43;5.12;;;;;;;-4.45;67.14;102707.90;1872546;76;21042;-44
2023/02/08 07:25:58;;;;;;;8.68;3.47;;;;;;;-4.47;67.15;102708.22;1861839;76;21567;-47
2023/02/08 07:28:27;;;;;;;10.85;5.40;;;;;;;-4.47;66.93;102706.94;1861948;76;21027;-53
2023/02/08 07:30:56;;;;;;;8.23;3.30;;;;;;;-4.46;66.79;102707.02;1862005;76;21152;-53
2023/02/08 07:33:25;;;;;;;11.48;5.03;;;;;;;-4.39;66.77;102710.83;1859919;76;21497;-47
2023/02/08 07:35:54;;;;;;;4.83;2.90;;;;;;;-4.27;66.50;102715.31;1859812;77;21135;-46
2023/02/08 07:38:23;;;;;;;9.85;3.50;;;;;;;-4.34;66.05;102718.36;1879088;76;21074;-46
2023/02/08 07:40:51;;;;;;;9.48;5.05;;;;;;;-4.41;66.19;102716.26;1888876;76;21016;-50
2023/02/08 07:43:20;;;;;;;11.80;5.62;;;;;;;-4.39;66.25;102714.68;1891272;76;21039;-47
2023/02/08 07:45:50;;;;;;;9.98;4.60;;;;;;;-4.37;66.13;102718.22;1890823;75;21125;-48
2023/02/08 07:48:19;;;;;;;7.55;3.90;;;;;;;-4.36;66.08;102717.39;1891201;76;21117;-45
2023/02/08 07:50:47;;;;;;;8.38;4.85;;;;;;;-4.43;65.51;102714.41;1882812;76;21046;-45
2023/02/08 07:53:16;;;;;;;9.18;5.05;;;;;;;-4.44;65.46;102714.83;1864464;76;21123;-46
2023/02/08 07:55:46;;;;;;;14.13;5.70;;;;;;;-4.33;65.67;102721.43;1877930;76;21505;-42
2023/02/08 07:58:15;;;;;;;10.30;4.92;;;;;;;-4.22;65.13;102719.81;1860654;76;21489;-42
2023/02/08 08:00:43;;;;;;;19.23;5.03;;;;;;;-4.15;64.93;102719.34;1864828;76;21050;-45
2023/02/08 08:03:12;;;;;;;10.82;5.00;;;;;;;-4.10;64.70;102725.63;1883107;76;21036;-46
2023/02/08 08:05:41;;;;;;;16.20;5.40;;;;;;;-4.08;64.65;102727.87;1885049;76;21122;-46
2023/02/08 08:08:11;;;;;;;12.47;5.87;;;;;;;-4.03;64.59;102732.86;1872352;76;21060;-46
2023/02/08 08:10:39;;;;;;;13.72;6.47;;;;;;;-4.00;64.51;102723.12;1872835;77;21040;-46
2023/02/08 08:13:08;;;;;;;14.13;6.45;;;;;;;-3.85;64.62;102737.19;1872716;77;21024;-45
2023/02/08 08:15:37;;;;;;;15.08;5.30;;;;;;;-3.86;63.92;102730.29;1847066;77;21049;-50
2023/02/08 08:18:06;;;;;;;14.18;6.70;;;;;;;-3.85;63.56;102727.80;1866830;75;21162;-45
2023/02/08 08:20:35;;;;;;;10.60;4.78;;;;;;;-3.90;63.47;102735.27;1872848;77;21154;-45
2023/02/08 08:23:04;;;;;;;9.80;5.25;;;;;;;-3.82;63.76;102734.38;1869387;77;21166;-44
2023/02/08 08:25:33;;;;;;;11.00;4.95;;;;;;;-3.73;63.71;102732.69;1867595;77;21471;-46
2023/02/08 08:28:02;;;;;;;14.00;6.65;;;;;;;-3.57;63.64;102735.25;1872695;77;21040;-43
2023/02/08 08:30:31;;;;;;;12.60;6.10;;;;;;;-3.38;63.37;102727.16;1872729;77;21447;-44
2023/02/08 08:32:59;;;;;;;12.07;6.42;;;;;;;-3.41;62.83;102738.58;1872702;77;21091;-44
2023/02/08 08:35:28;;;;;;;12.75;5.55;;;;;;;-3.44;62.47;102732.02;1870591;77;21036;-46
2023/02/08 08:37:57;;;;;;;11.83;4.37;;;;;;;-3.57;62.03;102736.95;1872771;77;21064;-45
2023/02/08 08:40:25;;;;;;;17.30;9.15;;;;;;;-3.60;62.09;102732.50;1872776;77;21020;-48
2023/02/08 08:42:54;;;;;;;22.20;5.28;;;;;;;-3.68;61.79;102735.11;1872679;77;21114;-45
2023/02/08 08:45:23;;;;;;;5.62;3.75;;;;;;;-3.75;61.81;102745.89;1851693;77;21142;-45
2023/02/08 08:47:51;;;;;;;15.50;6.37;;;;;;;-3.82;61.95;102737.36;1832503;78;21051;-44
2023/02/08 08:50:20;;;;;;;11.73;5.37;;;;;;;-3.80;62.03;102735.37;1832543;78;21150;-48
2023/02/08 08:52:48;;;;;;;10.78;5.90;;;;;;;-3.73;62.23;102739.13;1832550;78;21032;-45
2023/02/08 08:55:17;;;;;;;13.70;5.50;;;;;;;-3.72;62.10;102734.47;1843154;77;21031;-46
2023/02/08 08:57:46;;;;;;;12.70;6.05;;;;;;;-3.82;61.93;102733.09;1872609;77;21446;-45
2023/02/08 09:00:15;;;;;;;11.45;4.92;;;;;;;-3.76;62.21;102728.66;1872635;76;21087;-46
2023/02/08 09:02:44;;;;;;;11.75;6.05;;;;;;;-3.70;62.04;102732.86;1872796;77;21161;-45
2023/02/08 09:05:13;;;;;;;13.95;5.35;;;;;;;-3.81;61.71;102730.13;1870740;77;21541;-46
2023/02/08 09:07:41;;;;;;;15.25;7.75;;;;;;;-3.84;61.69;102726.10;1872607;75;21141;-49
2023/02/08 09:10:10;;;;;;;8.30;4.35;;;;;;;-3.78;61.72;102732.84;1856041;77;21036;-50
2023/02/08 09:12:39;;;;;;;11.03;5.28;;;;;;;-3.74;61.69;102727.08;1872625;77;21828;-50
2023/02/08 09:15:10;;;;;;;8.58;4.40;;;;;;;-3.69;61.50;102726.50;1866566;77;21476;-46
2023/02/08 09:17:39;;;;;;;14.68;7.12;;;;;;;-3.63;61.17;102722.06;1856279;77;21048;-48
2023/02/08 09:20:08;;;;;;;12.70;5.17;;;;;;;-3.63;61.51;102728.50;1872635;77;21090;-47
2023/02/08 09:22:36;;;;;;;14.60;6.15;;;;;;;-3.53;61.64;102721.70;1872887;76;21039;-46
2023/02/08 09:25:06;;;;;;;10.98;6.47;;;;;;;-3.45;61.05;102722.50;1869114;76;21119;-46
2023/02/08 09:27:35;;;;;;;8.25;3.30;;;;;;;-3.63;60.81;102716.92;1872722;76;21044;-45
2023/02/08 09:30:04;;;;;;;9.85;3.87;;;;;;;-3.79;60.90;102725.53;1872793;76;21087;-46
2023/02/08 09:32:33;;;;;;;13.05;5.35;;;;;;;-3.73;61.39;102721.98;1872884;77;21072;-46
2023/02/08 09:35:03;;;;;;;15.68;6.00;;;;;;;-3.72;61.19;102727.63;1869842;77;21047;-48
2023/02/08 09:37:32;;;;;;;14.35;6.08;;;;;;;-3.78;60.74;102728.98;1872422;76;21216;-47
2023/02/08 09:40:00;;;;;;;7.80;4.42;;;;;;;-3.78;60.74;102728.98;1872814;76;21447;-45
2023/02/08 09:42:32;;;;;;;10.13;4.72;;;;;;;-3.82;61.42;102721.92;1872768;77;21028;-46
2023/02/08 09:45:06;;;;;;;9.63;3.83;;;;;;;-3.73;61.47;102728.83;1869830;76;21086;-45
2023/02/08 09:47:37;;;;;;;11.03;5.08;;;;;;;-3.73;61.13;102739.13;1872742;76;21153;-46
2023/02/08 09:50:11;;;;;;;10.00;3.50;;;;;;;-3.73;61.27;102737.84;1872873;76;21123;-46
2023/02/08 09:52:43;;;;;;;16.10;6.72;;;;;;;-3.65;61.56;102740.80;1872827;76;21514;-47
2023/02/08 09:55:17;;;;;;;14.07;6.87;;;;;;;-3.54;61.23;102748.28;1864700;77;21522;-45
2023/02/08 09:57:48;;;;;;;7.50;3.52;;;;;;;-3.45;61.31;102750.84;1848632;77;21055;-44
2023/02/08 10:00:23;;;;;;;10.80;4.83;;;;;;;-3.35;61.45;102738.91;1872630;77;21036;-45
2023/02/08 10:02:53;;;;;;;16.55;6.72;;;;;;;-3.15;61.32;102739.91;1872526;76;21048;-46
2023/02/08 10:05:25;;;;;;;9.55;3.65;;;;;;;-3.25;60.91;102742.41;1872753;76;21048;-47
2023/02/08 10:07:55;;;;;;;6.67;3.92;;;;;;;-3.39;60.88;102742.16;1849927;76;21077;-45
2023/02/08 10:10:43;;;;;;;10.08;5.22;;;;;;;-3.46;60.99;102747.80;1841669;78;21142;-46
2023/02/08 10:13:33;;;;;;;11.68;5.17;;;;;;;-3.60;61.16;102750.53;1840213;77;21519;-47
2023/02/08 10:16:07;;;;;;;6.62;3.55;;;;;;;-3.51;61.52;102756.15;1841680;78;21076;-48
2023/02/08 10:18:44;;;;;;;9.53;3.50;;;;;;;-3.45;61.58;102759.44;1865098;77;21103;-45
2023/02/08 10:21:15;;;;;;;14.75;5.50;;;;;;;-3.30;61.44;102756.78;1872545;76;21056;-44
2023/02/08 10:24:11;;;;;;;9.50;4.20;;;;;;;-3.17;60.93;102759.53;1872764;75;21044;-51
2023/02/08 10:26:54;;;;;;;10.13;3.08;;;;;;;-3.25;60.65;102764.31;1847141;76;21441;-42
2023/02/08 10:29:29;;;;;;;9.43;5.80;;;;;;;-3.31;61.13;102774.31;1843493;77;21245;-44
2023/02/08 10:32:06;;;;;;;15.03;5.40;;;;;;;-3.43;60.96;102756.56;1852342;77;21054;-41
2023/02/08 10:34:47;;;;;;;9.55;5.30;;;;;;;-3.64;61.15;102760.20;1840360;77;21559;-40
2023/02/08 10:37:18;;;;;;;13.88;6.22;;;;;;;-3.74;61.17;102769.55;1868488;76;21090;-43
2023/02/08 10:39:49;;;;;;;8.08;4.55;;;;;;;-3.76;61.22;102766.89;1872342;76;21527;-49
2023/02/08 10:42:24;;;;;;;9.10;5.12;;;;;;;-3.76;61.22;102766.89;1872763;77;21020;-49
2023/02/08 10:45:15;;;;;;;16.17;7.12;;;;;;;-3.67;61.51;102772.94;1872880;77;21474;-45
2023/02/08 10:47:58;;;;;;;9.83;4.55;;;;;;;-3.74;61.10;102765.69;1848487;77;21024;-45
2023/02/08 10:50:35;;;;;;;9.63;4.42;;;;;;;-3.76;61.16;102765.98;1870822;77;21456;-45
2023/02/08 10:53:05;;;;;;;10.93;4.60;;;;;;;-3.70;61.25;102767.61;1852778;76;21511;-42
2023/02/08 10:55:37;;;;;;;8.10;5.12;;;;;;;-3.77;61.16;102758.67;1841667;77;21030;-43
2023/02/08 10:58:07;;;;;;;5.50;3.30;;;;;;;-3.82;61.28;102773.40;1841917;76;21174;-44
2023/02/08 11:00:38;;;;;;;17.25;8.05;;;;;;;-3.86;61.47;102776.21;1841723;77;21100;-41
2023/02/08 11:03:24;;;;;;;11.12;5.53;;;;;;;-3.70;61.44;102764.63;1841689;78;21131;-45
2023/02/08 11:05:53;;;;;;;14.18;5.65;;;;;;;-3.75;61.10;102770.34;1860916;76;21052;-43
2023/02/08 11:08:25;;;;;;;14.85;5.55;;;;;;;-3.70;61.34;102779.20;1872662;76;21592;-44
2023/02/08 11:11:06;;;;;;;15.78;6.70;;;;;;;-3.71;61.27;102774.84;1872689;75;21526;-44
2023/02/08 11:13:43;;;;;;;14.28;5.83;;;;;;;-3.67;61.42;102779.37;1872854;77;21008;-44
2023/02/08 11:16:15;;;;;;;13.78;5.72;;;;;;;-3.58;61.22;102770.84;1872650;76;21495;-41
2023/02/08 11:18:55;;;;;;;15.95;4.40;;;;;;;-3.44;60.66;102776.67;1871417;77;21562;-43
2023/02/08 11:21:28;;;;;;;10.10;4.60;;;;;;;-3.44;60.66;102776.67;1872668;77;21471;-41
2023/02/08 11:23:58;;;;;;;12.98;4.97;;;;;;;-3.48;60.21;102782.90;1872709;77;21529;-46
2023/02/08 11:26:40;;;;;;;15.45;6.85;;;;;;;-3.44;60.26;102779.25;1872781;76;21572;-42
2023/02/08 11:29:18;;;;;;;10.82;5.08;;;;;;;-3.38;60.46;102778.27;1860952;76;21037;-42
2023/02/08 11:32:04;;;;;;;14.80;4.87;;;;;;;-3.35;60.25;102784.00;1841577;78;21014;-42
2023/02/08 11:34:38;;;;;;;9.13;4.35;;;;;;;-3.38;59.92;102782.27;1836857;77;21104;-43
2023/02/08 11:37:24;;;;;;;12.75;6.40;;;;;;;-3.26;60.15;102782.27;1841705;78;21045;-41
2023/02/08 11:39:55;;;;;;;9.43;4.95;;;;;;;-3.21;59.61;102794.61;1841620;77;21131;-41
2023/02/08 11:42:26;;;;;;;7.67;4.50;;;;;;;-3.18;59.26;102802.87;1841495;78;21578;-45
2023/02/08 11:44:58;;;;;;;9.35;4.33;;;;;;;-3.31;59.46;102797.51;1841629;78;21054;-45
2023/02/08 11:47:33;;;;;;;13.00;6.12;;;;;;;-3.38;59.69;102796.30;1841624;78;21049;-45